createdAt,value
2019-03-15T00:00:10.509Z,1.43
2019-03-15T00:02:39.996Z,2.37
2019-03-15T00:05:08.984Z,1.97
2019-03-15T00:07:37.971Z,2.13
2019-03-15T00:10:07.267Z,2.00
2019-03-15T00:12:36.456Z,2.23
2019-03-15T00:15:06.739Z,2.57
2019-03-15T00:17:35.687Z,2.23
2019-03-15T00:20:05.036Z,1.87
2019-03-15T00:22:34.129Z,2.70
2019-03-15T00:25:03.315Z,2.43
2019-03-15T00:27:32.419Z,2.93
2019-03-15T00:30:01.498Z,3.23
2019-03-15T00:32:30.565Z,2.33
2019-03-15T00:34:59.556Z,1.87
2019-03-15T00:37:28.485Z,2.33
2019-03-15T00:39:57.579Z,2.23
2019-03-15T00:42:26.581Z,2.30
2019-03-15T00:44:55.650Z,2.50
2019-03-15T00:47:29.541Z,3.70
2019-03-15T00:49:58.183Z,2.87
2019-03-15T00:52:27.318Z,2.00
2019-03-15T00:54:57.088Z,2.27
2019-03-15T00:57:26.141Z,2.53
2019-03-15T00:59:55.136Z,2.87
2019-03-15T01:02:24.084Z,3.77
2019-03-15T01:04:53.181Z,2.73
2019-03-15T01:07:24.775Z,2.40
2019-03-15T01:09:54.196Z,2.60
2019-03-15T01:12:23.220Z,2.67
2019-03-15T01:14:52.139Z,2.30
2019-03-15T01:17:21.224Z,2.00
2019-03-15T01:19:50.278Z,2.20
2019-03-15T01:22:19.278Z,1.90
2019-03-15T01:24:48.326Z,2.63
2019-03-15T01:27:17.636Z,2.40
2019-03-15T01:29:46.789Z,2.43
2019-03-15T01:32:15.911Z,2.87
2019-03-15T01:34:44.946Z,2.97
2019-03-15T01:37:13.858Z,2.27
2019-03-15T01:39:42.823Z,2.83
2019-03-15T01:42:11.786Z,2.27
2019-03-15T01:44:40.814Z,1.63
2019-03-15T01:47:09.750Z,2.87
2019-03-15T01:49:38.819Z,2.33
2019-03-15T01:52:08.077Z,2.60
2019-03-15T01:54:37.069Z,2.17
2019-03-15T01:57:06.291Z,3.50
2019-03-15T01:59:35.182Z,2.93
2019-03-15T02:02:04.815Z,2.53
2019-03-15T02:04:33.959Z,2.67
2019-03-15T02:07:03.071Z,2.57
2019-03-15T02:09:32.055Z,2.13
2019-03-15T02:12:01.047Z,2.43
2019-03-15T02:14:30.395Z,3.20
2019-03-15T02:17:00.247Z,1.50
2019-03-15T02:19:29.746Z,3.07
2019-03-15T02:21:59.024Z,3.03
2019-03-15T02:24:27.998Z,3.10
2019-03-15T02:26:56.923Z,2.60
2019-03-15T02:29:25.941Z,2.40
2019-03-15T02:31:54.973Z,3.03
2019-03-15T02:34:24.131Z,1.97
2019-03-15T02:36:53.345Z,2.83
2019-03-15T02:39:22.486Z,3.53
2019-03-15T02:41:51.564Z,3.00
2019-03-15T02:44:20.676Z,2.80
2019-03-15T02:46:49.785Z,2.17
2019-03-15T02:49:18.927Z,2.63
2019-03-15T02:51:48.079Z,2.73
2019-03-15T02:54:17.164Z,2.40
2019-03-15T02:56:46.251Z,2.97
2019-03-15T02:59:15.290Z,2.73
2019-03-15T03:01:44.326Z,2.83
2019-03-15T03:04:14.084Z,2.87
2019-03-15T03:06:43.409Z,1.80
2019-03-15T03:09:12.697Z,1.70
2019-03-15T03:11:41.752Z,2.07
2019-03-15T03:14:10.790Z,2.93
2019-03-15T03:16:40.500Z,2.37
2019-03-15T03:19:09.655Z,2.97
2019-03-15T03:21:39.374Z,2.93
2019-03-15T03:24:09.528Z,3.00
2019-03-15T03:26:39.984Z,2.17
2019-03-15T03:29:09.638Z,2.40
2019-03-15T03:31:38.664Z,3.43
2019-03-15T03:34:07.711Z,2.00
2019-03-15T03:36:36.810Z,2.80
2019-03-15T03:39:07.097Z,1.97
2019-03-15T03:41:36.285Z,2.47
2019-03-15T03:44:05.365Z,2.27
2019-03-15T03:46:34.352Z,1.93
2019-03-15T03:49:03.760Z,2.60
2019-03-15T03:51:32.834Z,3.23
2019-03-15T03:54:01.923Z,2.60
2019-03-15T03:56:31.143Z,2.40
2019-03-15T03:59:00.222Z,1.80
2019-03-15T04:01:29.310Z,2.70
2019-03-15T04:03:58.475Z,2.50
2019-03-15T04:06:27.584Z,2.50
2019-03-15T04:08:56.726Z,2.00
2019-03-15T04:11:25.707Z,2.30
2019-03-15T04:13:54.805Z,2.50
2019-03-15T04:16:23.795Z,2.63
2019-03-15T04:18:52.925Z,2.33
2019-03-15T04:21:22.047Z,1.97
2019-03-15T04:23:51.087Z,2.53
2019-03-15T04:26:21.257Z,2.57
2019-03-15T04:28:50.302Z,3.07
2019-03-15T04:31:19.395Z,2.50
2019-03-15T04:33:48.335Z,2.40
2019-03-15T04:36:17.419Z,2.43
2019-03-15T04:38:46.564Z,2.30
2019-03-15T04:41:16.037Z,3.10
2019-03-15T04:43:45.320Z,2.30
2019-03-15T04:46:14.744Z,2.87
2019-03-15T04:48:43.753Z,2.23
2019-03-15T04:51:13.275Z,2.70
2019-03-15T04:53:42.249Z,2.50
2019-03-15T04:56:11.324Z,2.37
2019-03-15T04:58:40.385Z,2.77
2019-03-15T05:01:09.396Z,2.20
2019-03-15T05:03:38.390Z,3.67
2019-03-15T05:06:07.444Z,2.10
2019-03-15T05:08:36.416Z,3.67
2019-03-15T05:11:06.095Z,2.40
2019-03-15T05:13:35.051Z,2.53
2019-03-15T05:16:04.055Z,2.57
2019-03-15T05:18:33.018Z,2.27
2019-03-15T05:21:02.197Z,1.93
2019-03-15T05:23:31.311Z,2.10
2019-03-15T05:26:00.825Z,2.43
2019-03-15T05:28:29.928Z,2.87
2019-03-15T05:30:58.856Z,2.90
2019-03-15T05:33:27.755Z,2.53
2019-03-15T05:35:56.906Z,2.57
2019-03-15T05:38:25.860Z,1.70
2019-03-15T05:40:55.077Z,2.10
2019-03-15T05:43:24.277Z,2.87
2019-03-15T05:45:53.429Z,2.70
2019-03-15T05:48:22.491Z,2.47
2019-03-15T05:50:51.619Z,2.93
2019-03-15T05:53:20.667Z,2.80
2019-03-15T05:55:49.779Z,2.93
2019-03-15T05:58:21.822Z,1.67
2019-03-15T06:00:49.503Z,2.73
2019-03-15T06:03:18.527Z,3.27
2019-03-15T06:05:47.486Z,3.00
2019-03-15T06:08:17.765Z,2.00
2019-03-15T06:10:46.795Z,2.80
2019-03-15T06:13:18.489Z,2.30
2019-03-15T06:15:47.672Z,2.50
2019-03-15T06:18:16.723Z,2.27
2019-03-15T06:20:45.716Z,1.73
2019-03-15T06:23:16.902Z,2.67
2019-03-15T06:25:45.960Z,2.83
2019-03-15T06:28:15.180Z,2.00
2019-03-15T06:30:44.326Z,2.00
2019-03-15T06:33:15.011Z,3.07
2019-03-15T06:35:44.366Z,1.93
2019-03-15T06:38:13.622Z,2.20
2019-03-15T06:40:43.101Z,1.70
2019-03-15T06:43:13.363Z,2.37
2019-03-15T06:45:42.858Z,2.60
2019-03-15T06:48:11.939Z,2.23
2019-03-15T06:50:40.836Z,2.80
2019-03-15T06:53:09.857Z,2.17
2019-03-15T06:55:38.875Z,2.40
2019-03-15T06:58:07.954Z,3.00
2019-03-15T07:00:37.042Z,1.90
2019-03-15T07:03:06.167Z,3.17
2019-03-15T07:05:35.256Z,2.87
2019-03-15T07:08:04.335Z,3.53
2019-03-15T07:10:33.552Z,2.03
2019-03-15T07:13:02.704Z,2.33
2019-03-15T07:15:31.795Z,2.50
2019-03-15T07:18:00.793Z,2.83
2019-03-15T07:20:29.839Z,2.60
2019-03-15T07:22:58.836Z,2.33
2019-03-15T07:25:27.953Z,3.30
2019-03-15T07:27:56.868Z,2.87
2019-03-15T07:30:25.907Z,2.20
2019-03-15T07:32:54.933Z,2.27
2019-03-15T07:35:24.003Z,3.07
2019-03-15T07:37:52.989Z,3.27
2019-03-15T07:40:22.010Z,2.40
2019-03-15T07:42:51.105Z,2.53
2019-03-15T07:45:20.100Z,2.60
2019-03-15T07:47:49.246Z,2.50
2019-03-15T07:50:18.453Z,2.03
2019-03-15T07:52:47.509Z,2.73
2019-03-15T07:55:16.477Z,2.77
2019-03-15T07:57:45.527Z,2.07
2019-03-15T08:00:14.693Z,2.40
2019-03-15T08:02:43.777Z,1.97
2019-03-15T08:05:15.879Z,2.97
2019-03-15T08:07:45.878Z,2.07
2019-03-15T08:10:15.102Z,2.47
2019-03-15T08:12:44.148Z,3.10
2019-03-15T08:15:13.424Z,2.37
2019-03-15T08:17:42.477Z,2.40
2019-03-15T08:20:11.796Z,2.63
2019-03-15T08:22:40.883Z,3.03
2019-03-15T08:25:10.281Z,2.63
2019-03-15T08:27:39.297Z,2.90
2019-03-15T08:30:10.543Z,2.40
2019-03-15T08:32:43.226Z,2.67
2019-03-15T08:35:10.836Z,3.27
2019-03-15T08:37:39.892Z,3.20
2019-03-15T08:40:09.708Z,2.93
2019-03-15T08:42:38.750Z,3.07
2019-03-15T08:45:10.507Z,3.47
2019-03-15T08:47:39.482Z,3.37
2019-03-15T08:50:10.324Z,3.00
2019-03-15T08:52:41.992Z,2.47
2019-03-15T08:55:10.184Z,3.57
2019-03-15T08:57:39.280Z,3.27
2019-03-15T09:00:09.501Z,3.63
2019-03-15T09:02:38.499Z,3.40
2019-03-15T09:05:08.205Z,3.33
2019-03-15T09:07:37.211Z,3.73
2019-03-15T09:10:06.719Z,3.47
2019-03-15T09:12:35.675Z,3.93
2019-03-15T09:15:05.048Z,3.40
2019-03-15T09:17:34.035Z,3.00
2019-03-15T09:20:03.092Z,4.30
2019-03-15T09:22:32.084Z,3.93
2019-03-15T09:25:01.106Z,3.07
2019-03-15T09:27:30.229Z,3.73
2019-03-15T09:29:59.204Z,3.27
2019-03-15T09:32:28.112Z,6.63
2019-03-15T09:34:57.118Z,3.17
2019-03-15T09:37:27.266Z,3.57
2019-03-15T09:39:56.417Z,3.60
2019-03-15T09:42:25.581Z,3.07
2019-03-15T09:44:54.591Z,4.63
2019-03-15T09:47:23.722Z,3.73
2019-03-15T09:49:54.112Z,4.07
2019-03-15T09:52:23.190Z,4.93
2019-03-15T09:54:52.264Z,4.00
2019-03-15T09:57:21.485Z,3.80
2019-03-15T09:59:50.664Z,4.27
2019-03-15T10:02:29.755Z,3.90
2019-03-15T10:04:50.542Z,4.70
2019-03-15T10:07:19.670Z,4.90
2019-03-15T10:09:48.663Z,4.23
2019-03-15T10:12:17.592Z,4.37
2019-03-15T10:14:46.577Z,4.27
2019-03-15T10:17:15.603Z,4.50
2019-03-15T10:19:44.532Z,4.43
2019-03-15T10:22:13.524Z,4.07
2019-03-15T10:24:42.489Z,3.83
2019-03-15T10:27:11.511Z,4.03
2019-03-15T10:29:40.568Z,4.60
2019-03-15T10:32:09.614Z,4.60
2019-03-15T10:34:38.826Z,4.70
2019-03-15T10:37:07.913Z,3.83
2019-03-15T10:39:36.891Z,4.43
2019-03-15T10:42:06.008Z,4.03
2019-03-15T10:44:35.085Z,4.27
2019-03-15T10:47:04.268Z,4.30
2019-03-15T10:49:33.406Z,5.00
2019-03-15T10:52:02.546Z,4.40
2019-03-15T10:54:31.537Z,3.53
2019-03-15T10:57:00.504Z,3.87
2019-03-15T10:59:29.474Z,3.50
2019-03-15T11:01:59.010Z,3.40
2019-03-15T11:04:27.900Z,3.97
2019-03-15T11:06:56.808Z,4.27
2019-03-15T11:09:25.742Z,3.77
2019-03-15T11:11:54.723Z,3.67
2019-03-15T11:14:23.689Z,4.03
2019-03-15T11:16:52.732Z,4.00
2019-03-15T11:19:21.791Z,4.07
2019-03-15T11:21:50.792Z,2.93
2019-03-15T11:24:21.045Z,3.40
2019-03-15T11:26:49.985Z,3.57
2019-03-15T11:29:19.010Z,3.00
2019-03-15T11:31:48.130Z,3.90
2019-03-15T11:34:17.184Z,3.80
2019-03-15T11:36:57.759Z,4.37
2019-03-15T11:39:17.846Z,3.40
2019-03-15T11:41:48.746Z,2.83
2019-03-15T11:44:18.167Z,3.43
2019-03-15T11:46:47.419Z,3.93
2019-03-15T11:49:16.465Z,3.13
2019-03-15T11:51:45.587Z,3.23
2019-03-15T11:54:14.815Z,3.23
2019-03-15T11:56:43.955Z,3.70
2019-03-15T11:59:13.056Z,3.03
2019-03-15T12:01:42.151Z,3.27
2019-03-15T12:04:11.265Z,3.47
2019-03-15T12:06:40.431Z,3.73
2019-03-15T12:09:09.439Z,3.57
2019-03-15T12:11:38.572Z,3.73
2019-03-15T12:14:07.540Z,4.80
2019-03-15T12:16:36.407Z,3.33
2019-03-15T12:19:05.501Z,4.20
2019-03-15T12:21:34.444Z,3.73
2019-03-15T12:24:03.487Z,4.10
2019-03-15T12:26:40.116Z,3.50
2019-03-15T12:29:07.012Z,3.27
2019-03-15T12:31:36.090Z,3.47
2019-03-15T12:34:05.262Z,3.27
2019-03-15T12:36:34.241Z,3.30
2019-03-15T12:39:03.901Z,2.70
2019-03-15T12:41:32.970Z,3.07
2019-03-15T12:44:01.955Z,2.80
2019-03-15T12:46:32.536Z,2.53
2019-03-15T12:49:01.448Z,2.37
2019-03-15T12:51:32.299Z,2.33
2019-03-15T12:54:01.043Z,2.63
2019-03-15T12:56:30.635Z,2.40
2019-03-15T12:58:59.751Z,2.63
2019-03-15T13:01:28.694Z,2.40
2019-03-15T13:03:57.762Z,1.50
2019-03-15T13:06:27.074Z,1.90
2019-03-15T13:08:56.440Z,1.87
2019-03-15T13:11:25.636Z,1.73
2019-03-15T13:14:00.623Z,1.77
2019-03-15T13:16:29.677Z,1.60
2019-03-15T13:18:58.847Z,1.33
2019-03-15T13:21:28.019Z,1.67
2019-03-15T13:23:57.343Z,1.60
2019-03-15T13:26:28.977Z,1.10
2019-03-15T13:28:59.991Z,1.40
2019-03-15T13:31:33.981Z,1.03
2019-03-15T13:34:03.436Z,1.47
2019-03-15T13:36:33.284Z,1.43
2019-03-15T13:39:02.275Z,1.37
2019-03-15T13:41:31.526Z,0.70
2019-03-15T13:44:04.985Z,0.90
2019-03-15T13:46:33.979Z,1.40
2019-03-15T13:49:03.123Z,1.40
2019-03-15T13:51:32.551Z,0.90
2019-03-15T13:54:01.615Z,1.27
2019-03-15T13:56:32.549Z,1.40
2019-03-15T13:59:01.597Z,1.37
2019-03-15T14:01:30.651Z,1.00
2019-03-15T14:03:59.829Z,1.40
2019-03-15T14:06:28.820Z,1.63
2019-03-15T14:08:57.784Z,0.93
2019-03-15T14:11:26.819Z,0.90
2019-03-15T14:13:55.819Z,1.07
2019-03-15T14:16:24.811Z,1.83
2019-03-15T14:18:53.809Z,1.47
2019-03-15T14:21:22.996Z,1.37
2019-03-15T14:23:59.419Z,0.87
2019-03-15T14:26:28.562Z,1.13
2019-03-15T14:28:58.527Z,1.27
2019-03-15T14:31:27.475Z,1.00
2019-03-15T14:33:56.403Z,1.53
2019-03-15T14:36:25.511Z,0.87
2019-03-15T14:38:54.691Z,1.50
2019-03-15T14:41:23.865Z,1.27
2019-03-15T14:43:53.166Z,1.20
2019-03-15T14:46:22.338Z,0.93
2019-03-15T14:48:51.516Z,0.80
2019-03-15T14:51:20.538Z,1.10
2019-03-15T14:53:49.960Z,1.17
2019-03-15T14:56:19.591Z,1.40
2019-03-15T14:58:48.681Z,1.53
2019-03-15T15:01:17.791Z,1.23
2019-03-15T15:03:46.751Z,1.20
2019-03-15T15:06:15.680Z,1.13
2019-03-15T15:08:44.699Z,1.00
2019-03-15T15:11:13.831Z,0.70
2019-03-15T15:13:42.829Z,0.87
2019-03-15T15:16:11.960Z,1.00
2019-03-15T15:18:40.951Z,0.93
2019-03-15T15:21:10.048Z,2.13
2019-03-15T15:23:38.998Z,0.97
2019-03-15T15:26:07.984Z,0.90
2019-03-15T15:28:37.192Z,1.13
2019-03-15T15:31:06.410Z,1.00
2019-03-15T15:33:35.492Z,0.50
2019-03-15T15:36:06.969Z,0.70
2019-03-15T15:38:36.160Z,1.40
2019-03-15T15:41:05.256Z,0.70
2019-03-15T15:43:34.361Z,1.07
2019-03-15T15:46:03.352Z,0.73
2019-03-15T15:48:32.391Z,0.60
2019-03-15T15:51:01.338Z,1.07
2019-03-15T15:53:30.368Z,0.70
2019-03-15T15:55:59.466Z,0.90
2019-03-15T15:58:28.622Z,0.83
2019-03-15T16:00:59.784Z,1.13
2019-03-15T16:03:28.779Z,1.00
2019-03-15T16:05:57.892Z,1.37
2019-03-15T16:08:27.294Z,1.33
2019-03-15T16:10:56.407Z,0.90
2019-03-15T16:13:25.292Z,1.00
2019-03-15T16:15:54.379Z,1.30
2019-03-15T16:18:26.562Z,1.30
2019-03-15T16:20:54.053Z,1.23
2019-03-15T16:23:26.140Z,1.17
2019-03-15T16:25:55.039Z,1.33
2019-03-15T16:28:31.639Z,1.10
2019-03-15T16:30:54.603Z,1.13
2019-03-15T16:33:23.747Z,1.40
2019-03-15T16:35:52.651Z,1.03
2019-03-15T16:38:21.536Z,1.03
2019-03-15T16:40:50.544Z,1.03
2019-03-15T16:43:19.440Z,3.10
2019-03-15T16:45:48.423Z,1.03
2019-03-15T16:48:17.400Z,1.43
2019-03-15T16:50:46.415Z,2.30
2019-03-15T16:53:15.329Z,1.10
2019-03-15T16:55:44.309Z,1.13
2019-03-15T16:58:13.192Z,1.30
2019-03-15T17:00:42.107Z,1.30
2019-03-15T17:03:11.127Z,1.10
2019-03-15T17:05:40.067Z,1.23
2019-03-15T17:08:09.020Z,1.20
2019-03-15T17:10:38.196Z,1.53
2019-03-15T17:13:07.226Z,1.47
2019-03-15T17:15:36.317Z,1.10
2019-03-15T17:18:05.319Z,1.57
2019-03-15T17:20:34.307Z,1.33
2019-03-15T17:23:03.454Z,1.23
2019-03-15T17:25:32.664Z,1.10
2019-03-15T17:28:01.659Z,1.67
2019-03-15T17:30:31.139Z,1.07
2019-03-15T17:33:00.123Z,1.43
2019-03-15T17:35:29.311Z,1.83
2019-03-15T17:37:58.420Z,1.37
2019-03-15T17:40:27.463Z,1.50
2019-03-15T17:42:56.409Z,1.93
2019-03-15T17:45:25.546Z,1.47
2019-03-15T17:47:54.575Z,1.93
2019-03-15T17:50:23.595Z,1.50
2019-03-15T17:52:52.795Z,1.17
2019-03-15T17:55:21.884Z,1.00
2019-03-15T17:57:50.964Z,1.57
2019-03-15T18:00:36.562Z,1.40
2019-03-15T18:03:19.848Z,1.70
2019-03-15T18:05:36.879Z,1.30
2019-03-15T18:08:05.935Z,1.50
2019-03-15T18:10:35.073Z,1.80
2019-03-15T18:13:04.483Z,1.57
2019-03-15T18:15:33.676Z,1.13
2019-03-15T18:18:02.565Z,1.93
2019-03-15T18:20:31.710Z,1.27
2019-03-15T18:23:00.775Z,1.60
2019-03-15T18:25:29.803Z,1.40
2019-03-15T18:27:59.107Z,1.40
2019-03-15T18:30:28.360Z,1.27
2019-03-15T18:32:57.435Z,2.27
2019-03-15T18:35:33.756Z,1.93
2019-03-15T18:37:57.471Z,1.27
2019-03-15T18:40:26.483Z,1.77
2019-03-15T18:42:55.517Z,1.70
2019-03-15T18:45:24.614Z,2.27
2019-03-15T18:47:53.575Z,1.30
2019-03-15T18:50:22.804Z,1.53
2019-03-15T18:52:51.963Z,1.47
2019-03-15T18:55:21.484Z,1.57
2019-03-15T18:57:50.692Z,2.20
2019-03-15T19:00:20.072Z,1.73
2019-03-15T19:02:49.387Z,1.80
2019-03-15T19:05:18.541Z,2.27
2019-03-15T19:07:47.639Z,2.57
2019-03-15T19:10:16.911Z,1.33
2019-03-15T19:12:46.361Z,1.57
2019-03-15T19:15:15.761Z,1.20
2019-03-15T19:17:44.759Z,1.37
2019-03-15T19:20:13.998Z,2.00
2019-03-15T19:22:43.207Z,2.87
2019-03-15T19:25:12.365Z,2.37
2019-03-15T19:27:41.473Z,1.93
2019-03-15T19:30:11.568Z,2.03
2019-03-15T19:32:40.637Z,2.50
2019-03-15T19:35:09.847Z,2.03
2019-03-15T19:37:41.301Z,2.30
2019-03-15T19:40:11.945Z,1.93
2019-03-15T19:42:44.614Z,1.70
2019-03-15T19:45:12.907Z,1.93
2019-03-15T19:47:42.427Z,1.90
2019-03-15T19:50:13.743Z,1.87
2019-03-15T19:52:43.892Z,2.00
2019-03-15T19:55:18.507Z,1.37
2019-03-15T19:57:47.579Z,1.97
2019-03-15T20:00:16.924Z,2.17
2019-03-15T20:02:46.158Z,1.53
2019-03-15T20:05:15.776Z,1.87
2019-03-15T20:07:45.186Z,1.50
2019-03-15T20:10:16.821Z,1.67
2019-03-15T20:12:45.776Z,2.00
2019-03-15T20:15:15.048Z,2.33
2019-03-15T20:17:44.179Z,1.70
2019-03-15T20:20:13.882Z,2.33
2019-03-15T20:22:42.923Z,3.17
2019-03-15T20:25:12.483Z,2.20
2019-03-15T20:27:46.016Z,2.00
2019-03-15T20:30:21.983Z,1.77
2019-03-15T20:32:47.234Z,2.70
2019-03-15T20:35:16.352Z,1.87
2019-03-15T20:37:46.900Z,1.67
2019-03-15T20:40:19.295Z,2.53
2019-03-15T20:42:49.222Z,2.40
2019-03-15T20:45:18.175Z,1.97
2019-03-15T20:47:47.099Z,2.17
2019-03-15T20:50:16.195Z,1.80
2019-03-15T20:52:45.217Z,2.60
2019-03-15T20:55:14.649Z,2.27
2019-03-15T20:57:43.749Z,2.53
2019-03-15T21:00:14.128Z,2.57
2019-03-15T21:02:43.513Z,2.13
2019-03-15T21:05:15.072Z,2.20
2019-03-15T21:07:44.194Z,2.30
2019-03-15T21:10:17.436Z,1.43
2019-03-15T21:12:46.589Z,2.83
2019-03-15T21:15:17.112Z,2.20
2019-03-15T21:17:47.992Z,2.53
2019-03-15T21:20:17.455Z,2.50
2019-03-15T21:22:47.337Z,1.60
2019-03-15T21:25:16.607Z,2.53
2019-03-15T21:27:53.582Z,2.50
2019-03-15T21:30:17.072Z,2.53
2019-03-15T21:32:46.447Z,3.17
2019-03-15T21:35:15.706Z,1.83
2019-03-15T21:37:44.824Z,1.97
2019-03-15T21:40:14.332Z,2.47
2019-03-15T21:42:43.391Z,2.27
2019-03-15T21:45:14.746Z,2.73
2019-03-15T21:47:43.796Z,2.27
2019-03-15T21:50:13.139Z,1.50
2019-03-15T21:52:42.571Z,2.67
2019-03-15T21:55:11.805Z,1.80
2019-03-15T21:57:40.983Z,2.07
2019-03-15T22:00:11.827Z,2.07
2019-03-15T22:02:41.180Z,2.63
2019-03-15T22:05:10.368Z,1.90
2019-03-15T22:07:39.600Z,2.50
2019-03-15T22:10:09.288Z,1.67
2019-03-15T22:12:39.635Z,2.47
2019-03-15T22:15:10.599Z,2.33
2019-03-15T22:17:40.720Z,1.90
2019-03-15T22:20:10.388Z,1.87
2019-03-15T22:22:39.596Z,1.93
2019-03-15T22:25:09.607Z,2.70
2019-03-15T22:27:39.007Z,2.20
2019-03-15T22:30:08.335Z,2.50
2019-03-15T22:32:44.010Z,1.93
2019-03-15T22:35:13.480Z,1.90
2019-03-15T22:37:44.908Z,2.43
2019-03-15T22:40:14.341Z,2.03
2019-03-15T22:42:43.509Z,2.20
2019-03-15T22:45:12.933Z,2.00
2019-03-15T22:47:44.160Z,1.40
2019-03-15T22:50:13.352Z,2.13
2019-03-15T22:52:42.349Z,2.30
2019-03-15T22:55:12.988Z,2.63
2019-03-15T22:57:42.359Z,2.57
2019-03-15T23:00:13.196Z,2.43
2019-03-15T23:02:42.464Z,1.93
2019-03-15T23:05:15.630Z,2.23
2019-03-15T23:07:44.800Z,2.43
2019-03-15T23:10:14.061Z,2.40
2019-03-15T23:12:46.609Z,5.27
2019-03-15T23:15:15.659Z,2.27
2019-03-15T23:17:44.697Z,3.33
2019-03-15T23:20:13.847Z,2.83
2019-03-15T23:22:42.820Z,2.53
2019-03-15T23:25:12.260Z,1.77
2019-03-15T23:27:41.316Z,2.50
2019-03-15T23:30:10.483Z,2.27
2019-03-15T23:32:39.651Z,1.90
2019-03-15T23:35:08.790Z,2.37
2019-03-15T23:37:37.874Z,2.20
2019-03-15T23:40:07.153Z,2.40
2019-03-15T23:42:36.151Z,1.87
2019-03-15T23:45:05.542Z,2.77
2019-03-15T23:47:34.654Z,2.00
2019-03-15T23:50:03.978Z,2.50
2019-03-15T23:52:33.093Z,2.40
2019-03-15T23:55:02.132Z,1.90
2019-03-15T23:57:31.083Z,1.97
